Time,TemperatureF,DewpointF,PressureIn,WindDirection,WindDirectionDegrees,WindSpeedMPH,WindSpeedGustMPH,Humidity,HourlyPrecipIn,Conditions,Clouds,dailyrainin,SoftwareType,DateUTC
2013-02-27 00:02:00,32.0,28.0,29.99,SE,136,5.0,11.0,86,0.05,,,0.06,,2013-02-27 05:02:00,
2013-02-27 00:12:00,32.0,28.0,29.99,SE,136,5.0,11.0,86,0.05,,,0.06,,2013-02-27 05:12:00,
2013-02-27 00:22:00,32.0,29.0,29.98,NNW,348,5.0,13.0,87,0.06,,,0.09,,2013-02-27 05:22:00,
2013-02-27 00:32:00,32.0,29.0,29.97,ENE,75,4.0,16.0,87,0.05,,,0.10,,2013-02-27 05:32:00,
2013-02-27 00:42:00,32.0,29.0,29.97,ENE,75,4.0,16.0,87,0.05,,,0.10,,2013-02-27 05:42:00,
2013-02-27 00:52:00,32.0,29.0,29.96,ENE,74,2.0,16.0,87,0.06,,,0.11,,2013-02-27 05:52:00,
2013-02-27 01:02:00,32.0,29.0,29.95,ENE,74,0.0,0.0,88,0.04,,,0.11,,2013-02-27 06:02:00,
2013-02-27 01:11:00,32.0,29.0,29.95,ENE,74,0.0,0.0,88,0.04,,,0.11,,2013-02-27 06:11:00,
2013-02-27 01:22:00,32.0,29.0,29.96,ENE,75,0.0,0.0,88,0.04,,,0.13,,2013-02-27 06:22:00,
2013-02-27 01:33:00,32.0,29.0,29.97,ENE,75,0.0,0.0,88,0.08,,,0.19,,2013-02-27 06:33:00,
2013-02-27 01:42:00,32.0,29.0,29.97,ENE,75,0.0,0.0,88,0.08,,,0.19,,2013-02-27 06:42:00,
2013-02-27 01:52:00,33.0,30.0,29.95,ENE,75,0.0,0.0,88,0.14,,,0.25,,2013-02-27 06:52:00,
2013-02-27 02:01:00,33.0,30.0,29.95,ENE,74,0.0,0.0,89,0.20,,,0.31,,2013-02-27 07:01:00,
2013-02-27 02:12:00,33.0,30.0,29.95,ENE,74,0.0,0.0,89,0.20,,,0.31,,2013-02-27 07:12:00,
2013-02-27 02:21:00,33.0,30.0,29.92,ENE,74,0.0,0.0,89,0.22,,,0.37,,2013-02-27 07:21:00,
2013-02-27 02:32:00,33.0,30.0,29.91,ENE,74,0.0,0.0,89,0.22,,,0.41,,2013-02-27 07:32:00,
2013-02-27 02:42:00,33.0,30.0,29.91,ENE,74,0.0,0.0,89,0.22,,,0.41,,2013-02-27 07:42:00,
2013-02-27 02:52:00,33.0,30.0,29.88,ENE,74,0.0,0.0,89,0.16,,,0.41,,2013-02-27 07:52:00,
2013-02-27 03:01:00,33.0,30.0,29.88,ENE,74,0.0,0.0,89,0.12,,,0.43,,2013-02-27 08:01:00,
2013-02-27 03:11:00,33.0,30.0,29.88,ENE,74,0.0,0.0,89,0.12,,,0.43,,2013-02-27 08:11:00,
2013-02-27 03:21:00,33.0,30.0,29.87,ENE,74,0.0,0.0,89,0.10,,,0.47,,2013-02-27 08:21:00,
2013-02-27 03:32:00,33.0,30.0,29.85,ENE,74,0.0,0.0,89,0.09,,,0.50,,2013-02-27 08:32:00,
2013-02-27 03:42:00,33.0,30.0,29.85,ENE,74,0.0,0.0,89,0.09,,,0.50,,2013-02-27 08:42:00,
2013-02-27 03:53:00,33.0,30.0,29.85,ENE,74,0.0,0.0,90,0.11,,,0.52,,2013-02-27 08:53:00,
2013-02-27 04:02:00,33.0,30.0,29.84,NNE,12,0.0,0.0,90,0.12,,,0.55,,2013-02-27 09:02:00,
2013-02-27 04:12:00,33.0,30.0,29.84,NNE,12,0.0,0.0,90,0.12,,,0.55,,2013-02-27 09:12:00,
2013-02-27 04:22:00,33.0,30.0,29.82,East,82,7.0,14.0,90,0.10,,,0.57,,2013-02-27 09:22:00,
2013-02-27 04:32:00,34.0,31.0,29.82,ENE,69,5.0,13.0,90,0.11,,,0.61,,2013-02-27 09:32:00,
2013-02-27 04:41:00,34.0,31.0,29.82,ENE,69,5.0,13.0,90,0.11,,,0.61,,2013-02-27 09:41:00,
2013-02-27 04:52:00,34.0,31.0,29.80,NE,49,6.0,16.0,90,0.11,,,0.63,,2013-02-27 09:52:00,
2013-02-27 05:01:00,34.0,31.0,29.80,SE,138,4.0,13.0,90,0.12,,,0.67,,2013-02-27 10:01:00,
2013-02-27 05:12:00,34.0,31.0,29.80,SE,138,4.0,13.0,90,0.12,,,0.67,,2013-02-27 10:12:00,
2013-02-27 05:22:00,34.0,31.0,29.80,NE,42,3.0,11.0,90,0.14,,,0.71,,2013-02-27 10:22:00,
2013-02-27 05:32:00,35.0,32.0,29.80,East,101,1.0,10.0,90,0.13,,,0.74,,2013-02-27 10:32:00,
2013-02-27 05:42:00,35.0,32.0,29.80,East,101,1.0,10.0,90,0.13,,,0.74,,2013-02-27 10:42:00,
2013-02-27 05:53:00,35.0,32.0,29.78,ESE,113,3.0,14.0,90,0.13,,,0.76,,2013-02-27 10:53:00,
2013-02-27 06:02:00,35.0,32.0,29.78,SE,144,2.0,19.0,90,0.13,,,0.80,,2013-02-27 11:02:00,
2013-02-27 06:12:00,35.0,32.0,29.78,SE,144,2.0,19.0,90,0.13,,,0.80,,2013-02-27 11:12:00,
2013-02-27 06:22:00,35.0,32.0,29.77,East,94,4.0,13.0,90,0.12,,,0.83,,2013-02-27 11:22:00,
2013-02-27 06:32:00,35.0,32.0,29.76,NE,36,5.0,12.0,90,0.12,,,0.86,,2013-02-27 11:32:00,
2013-02-27 06:42:00,35.0,32.0,29.76,NE,36,5.0,12.0,90,0.12,,,0.86,,2013-02-27 11:42:00,
2013-02-27 06:52:00,35.0,32.0,29.75,ESE,119,4.0,16.0,90,0.13,,,0.89,,2013-02-27 11:52:00,
2013-02-27 07:02:00,36.0,33.0,29.75,NE,51,4.0,13.0,90,0.11,,,0.91,,2013-02-27 12:02:00,
2013-02-27 07:13:00,36.0,33.0,29.75,NE,51,4.0,13.0,90,0.11,,,0.91,,2013-02-27 12:13:00,
2013-02-27 07:22:00,36.0,33.0,29.74,ENE,78,5.0,11.0,90,0.10,,,0.93,,2013-02-27 12:22:00,
2013-02-27 07:33:00,36.0,34.0,29.73,NNE,30,4.0,16.0,91,0.10,,,0.96,,2013-02-27 12:33:00,
2013-02-27 07:42:00,36.0,34.0,29.73,NNE,30,4.0,16.0,91,0.10,,,0.96,,2013-02-27 12:42:00,
2013-02-27 07:53:00,36.0,33.0,29.73,East,94,5.0,16.0,90,0.08,,,0.97,,2013-02-27 12:53:00,
2013-02-27 08:02:00,37.0,35.0,29.72,NNW,334,6.0,16.0,91,0.08,,,0.99,,2013-02-27 13:02:00,
2013-02-27 08:11:00,37.0,35.0,29.72,NNW,334,6.0,16.0,91,0.08,,,0.99,,2013-02-27 13:11:00,
2013-02-27 08:22:00,37.0,35.0,29.72,NE,48,3.0,15.0,91,0.07,,,1.00,,2013-02-27 13:22:00,
2013-02-27 08:32:00,37.0,35.0,29.72,NE,40,1.0,14.0,91,0.05,,,1.01,,2013-02-27 13:32:00,
2013-02-27 08:42:00,37.0,35.0,29.72,NE,40,1.0,14.0,91,0.05,,,1.01,,2013-02-27 13:42:00,
2013-02-27 08:52:00,38.0,36.0,29.70,ENE,68,4.0,13.0,91,0.06,,,1.03,,2013-02-27 13:52:00,
2013-02-27 09:02:00,38.0,36.0,29.69,ESE,106,5.0,12.0,91,0.05,,,1.04,,2013-02-27 14:02:00,
2013-02-27 09:12:00,38.0,36.0,29.69,ESE,106,5.0,12.0,91,0.05,,,1.04,,2013-02-27 14:12:00,
2013-02-27 09:22:00,38.0,36.0,29.68,ESE,117,1.0,17.0,91,0.06,,,1.06,,2013-02-27 14:22:00,
2013-02-27 09:32:00,38.0,36.0,29.66,SE,136,5.0,11.0,91,0.06,,,1.07,,2013-02-27 14:32:00,
2013-02-27 09:42:00,38.0,36.0,29.66,SE,136,5.0,11.0,91,0.06,,,1.07,,2013-02-27 14:42:00,
2013-02-27 09:52:00,39.0,37.0,29.66,North,360,2.0,14.0,91,0.05,,,1.08,,2013-02-27 14:52:00,
2013-02-27 10:02:00,39.0,37.0,29.65,East,86,5.0,24.0,91,0.06,,,1.10,,2013-02-27 15:02:00,
2013-02-27 10:12:00,39.0,37.0,29.65,East,86,5.0,24.0,91,0.06,,,1.10,,2013-02-27 15:12:00,
2013-02-27 10:22:00,39.0,37.0,29.65,East,96,4.0,19.0,91,0.05,,,1.11,,2013-02-27 15:22:00,
2013-02-27 10:32:00,39.0,37.0,29.64,East,84,2.0,12.0,91,0.06,,,1.13,,2013-02-27 15:32:00,
2013-02-27 10:42:00,39.0,37.0,29.64,East,84,2.0,12.0,91,0.06,,,1.13,,2013-02-27 15:42:00,
2013-02-27 10:52:00,40.0,38.0,29.63,North,360,9.0,14.0,91,0.05,,,1.13,,2013-02-27 15:52:00,
2013-02-27 11:02:00,40.0,38.0,29.62,East,85,4.0,13.0,91,0.05,,,1.15,,2013-02-27 16:02:00,
2013-02-27 11:12:00,40.0,38.0,29.62,East,85,4.0,13.0,91,0.05,,,1.15,,2013-02-27 16:12:00,
2013-02-27 11:22:00,40.0,38.0,29.62,NE,44,4.0,17.0,91,0.05,,,1.16,,2013-02-27 16:22:00,
2013-02-27 11:32:00,40.0,38.0,29.60,SSE,149,3.0,15.0,91,0.05,,,1.18,,2013-02-27 16:32:00,
2013-02-27 11:42:00,40.0,38.0,29.60,SSE,149,3.0,15.0,91,0.05,,,1.18,,2013-02-27 16:42:00,
2013-02-27 11:52:00,41.0,39.0,29.60,SE,134,2.0,10.0,91,0.07,,,1.20,,2013-02-27 16:52:00,
2013-02-27 12:02:00,41.0,39.0,29.61,ESE,115,2.0,16.0,91,0.07,,,1.22,,2013-02-27 17:02:00,
2013-02-27 12:11:00,41.0,39.0,29.61,ESE,115,2.0,16.0,91,0.07,,,1.22,,2013-02-27 17:11:00,
2013-02-27 12:21:00,41.0,39.0,29.60,East,84,3.0,11.0,91,0.08,,,1.24,,2013-02-27 17:21:00,
2013-02-27 12:32:00,41.0,39.0,29.59,NNE,26,3.0,15.0,91,0.09,,,1.27,,2013-02-27 17:32:00,
2013-02-27 12:42:00,41.0,39.0,29.59,NNE,26,3.0,15.0,91,0.09,,,1.27,,2013-02-27 17:42:00,
2013-02-27 12:52:00,41.0,39.0,29.59,ENE,75,1.0,5.0,91,0.13,,,1.33,,2013-02-27 17:52:00,
2013-02-27 13:02:00,41.0,39.0,29.57,ESE,109,2.0,9.0,91,0.14,,,1.36,,2013-02-27 18:02:00,
2013-02-27 13:11:00,41.0,39.0,29.57,ESE,109,2.0,9.0,91,0.14,,,1.36,,2013-02-27 18:11:00,
2013-02-27 13:22:00,41.0,39.0,29.57,ESE,117,2.0,12.0,91,0.12,,,1.36,,2013-02-27 18:22:00,
2013-02-27 13:32:00,42.0,40.0,29.56,SSE,149,4.0,10.0,91,0.10,,,1.37,,2013-02-27 18:32:00,
2013-02-27 13:42:00,42.0,40.0,29.56,SSE,149,4.0,10.0,91,0.10,,,1.37,,2013-02-27 18:42:00,
2013-02-27 13:52:00,42.0,40.0,29.54,SSE,153,6.0,13.0,91,0.04,,,1.38,,2013-02-27 18:52:00,
2013-02-27 14:01:00,42.0,40.0,29.52,SE,144,5.0,15.0,91,0.02,,,1.38,,2013-02-27 19:01:00,
2013-02-27 14:12:00,42.0,40.0,29.52,SE,144,5.0,15.0,91,0.02,,,1.38,,2013-02-27 19:12:00,
2013-02-27 14:21:00,42.0,40.0,29.54,SE,143,7.0,14.0,91,0.02,,,1.38,,2013-02-27 19:21:00,
2013-02-27 14:32:00,42.0,40.0,29.54,SE,134,4.0,16.0,91,0.01,,,1.38,,2013-02-27 19:32:00,
2013-02-27 14:42:00,42.0,40.0,29.54,SE,134,4.0,16.0,91,0.01,,,1.38,,2013-02-27 19:42:00,
2013-02-27 14:52:00,42.0,40.0,29.54,SSE,165,5.0,11.0,91,0.00,,,1.38,,2013-02-27 19:52:00,
2013-02-27 15:02:00,41.0,39.0,29.54,ESE,117,2.0,7.0,91,0.00,,,1.38,,2013-02-27 20:02:00,
2013-02-27 15:12:00,41.0,39.0,29.54,ESE,117,2.0,7.0,91,0.00,,,1.38,,2013-02-27 20:12:00,
2013-02-27 15:22:00,41.0,39.0,29.55,ENE,59,2.0,6.0,91,0.00,,,1.38,,2013-02-27 20:22:00,
2013-02-27 15:32:00,41.0,39.0,29.56,East,91,0.0,8.0,91,0.01,,,1.39,,2013-02-27 20:32:00,
2013-02-27 15:42:00,41.0,39.0,29.56,East,91,0.0,8.0,91,0.01,,,1.39,,2013-02-27 20:42:00,
2013-02-27 15:52:00,41.0,39.0,29.54,South,188,1.0,5.0,91,0.04,,,1.42,,2013-02-27 20:52:00,
2013-02-27 16:02:00,41.0,39.0,29.56,North,355,0.0,5.0,91,0.05,,,1.43,,2013-02-27 21:02:00,
2013-02-27 16:11:00,41.0,39.0,29.56,North,355,0.0,5.0,91,0.05,,,1.43,,2013-02-27 21:11:00,
2013-02-27 16:22:00,41.0,39.0,29.55,NE,49,0.0,7.0,91,0.06,,,1.44,,2013-02-27 21:22:00,
2013-02-27 16:32:00,41.0,39.0,29.55,NE,36,2.0,5.0,91,0.05,,,1.44,,2013-02-27 21:32:00,
2013-02-27 16:42:00,41.0,39.0,29.55,NE,36,2.0,5.0,91,0.05,,,1.44,,2013-02-27 21:42:00,
2013-02-27 16:52:00,41.0,39.0,29.55,East,82,2.0,8.0,91,0.03,,,1.45,,2013-02-27 21:52:00,
2013-02-27 17:02:00,41.0,39.0,29.56,East,86,1.0,4.0,91,0.02,,,1.45,,2013-02-27 22:02:00,
2013-02-27 17:11:00,41.0,39.0,29.56,East,86,1.0,4.0,91,0.02,,,1.45,,2013-02-27 22:11:00,
2013-02-27 17:21:00,41.0,39.0,29.57,NE,45,0.0,2.0,91,0.01,,,1.45,,2013-02-27 22:21:00,
2013-02-27 17:32:00,41.0,39.0,29.57,East,90,0.0,2.0,91,0.02,,,1.46,,2013-02-27 22:32:00,
2013-02-27 17:42:00,41.0,39.0,29.57,East,90,0.0,2.0,91,0.02,,,1.46,,2013-02-27 22:42:00,
2013-02-27 17:52:00,41.0,39.0,29.57,ENE,77,1.0,2.0,91,0.02,,,1.47,,2013-02-27 22:52:00,
2013-02-27 18:01:00,40.0,38.0,29.57,NE,38,1.0,3.0,91,0.02,,,1.47,,2013-02-27 23:01:00,
2013-02-27 18:11:00,40.0,38.0,29.57,NE,38,1.0,3.0,91,0.02,,,1.47,,2013-02-27 23:11:00,
2013-02-27 18:21:00,40.0,38.0,29.58,East,96,0.0,3.0,91,0.02,,,1.47,,2013-02-27 23:21:00,
2013-02-27 18:32:00,40.0,38.0,29.59,NNE,30,0.0,0.0,91,0.01,,,1.47,,2013-02-27 23:32:00,
2013-02-27 18:42:00,40.0,38.0,29.59,NNE,30,0.0,0.0,91,0.01,,,1.47,,2013-02-27 23:42:00,
2013-02-27 18:53:00,40.0,38.0,29.60,NNE,30,0.0,0.0,91,0.01,,,1.48,,2013-02-27 23:53:00,
2013-02-27 19:02:00,40.0,38.0,29.60,NNE,30,0.0,0.0,91,0.02,,,1.49,,2013-02-28 00:02:00,
2013-02-27 19:12:00,40.0,38.0,29.60,NNE,30,0.0,0.0,91,0.02,,,1.49,,2013-02-28 00:12:00,
2013-02-27 19:21:00,40.0,38.0,29.60,NNE,29,0.0,0.0,91,0.03,,,1.50,,2013-02-28 00:21:00,
2013-02-27 19:32:00,40.0,38.0,29.61,NNE,30,0.0,1.0,91,0.04,,,1.51,,2013-02-28 00:32:00,
2013-02-27 19:42:00,40.0,38.0,29.61,NNE,30,0.0,1.0,91,0.04,,,1.51,,2013-02-28 00:42:00,
2013-02-27 19:52:00,40.0,38.0,29.60,SW,220,0.0,2.0,92,0.04,,,1.52,,2013-02-28 00:52:00,
2013-02-27 20:01:00,39.0,37.0,29.61,West,278,1.0,5.0,92,0.04,,,1.53,,2013-02-28 01:01:00,
2013-02-27 20:11:00,39.0,37.0,29.61,West,278,1.0,5.0,92,0.04,,,1.53,,2013-02-28 01:11:00,
2013-02-27 20:22:00,39.0,37.0,29.61,NW,312,1.0,5.0,91,0.03,,,1.53,,2013-02-28 01:22:00,
2013-02-27 20:32:00,39.0,37.0,29.61,WNW,283,1.0,3.0,92,0.02,,,1.53,,2013-02-28 01:32:00,
2013-02-27 20:42:00,39.0,37.0,29.61,WNW,283,1.0,3.0,92,0.02,,,1.53,,2013-02-28 01:42:00,
2013-02-27 20:52:00,39.0,37.0,29.62,WNW,303,0.0,2.0,92,0.01,,,1.53,,2013-02-28 01:52:00,
2013-02-27 21:01:00,38.0,36.0,29.63,WNW,303,0.0,2.0,91,0.00,,,1.53,,2013-02-28 02:01:00,
2013-02-27 21:11:00,38.0,36.0,29.63,WNW,303,0.0,2.0,91,0.00,,,1.53,,2013-02-28 02:11:00,
2013-02-27 21:22:00,38.0,36.0,29.63,WNW,291,3.0,9.0,92,0.00,,,1.53,,2013-02-28 02:22:00,
2013-02-27 21:32:00,38.0,36.0,29.63,WNW,303,1.0,3.0,91,0.00,,,1.53,,2013-02-28 02:32:00,
2013-02-27 21:41:00,38.0,36.0,29.63,WNW,303,1.0,3.0,91,0.00,,,1.53,,2013-02-28 02:41:00,
2013-02-27 21:52:00,38.0,36.0,29.63,WNW,303,1.0,3.0,91,0.00,,,1.53,,2013-02-28 02:52:00,
2013-02-27 22:02:00,37.0,35.0,29.64,SSW,194,0.0,4.0,91,0.00,,,1.53,,2013-02-28 03:02:00,
2013-02-27 22:11:00,37.0,35.0,29.64,SSW,194,0.0,4.0,91,0.00,,,1.53,,2013-02-28 03:11:00,
2013-02-27 22:21:00,37.0,35.0,29.64,WNW,303,0.0,4.0,91,0.00,,,1.53,,2013-02-28 03:21:00,
2013-02-27 22:32:00,36.0,34.0,29.64,WNW,303,0.0,0.0,91,0.00,,,1.53,,2013-02-28 03:32:00,
2013-02-27 22:42:00,36.0,34.0,29.64,WNW,303,0.0,0.0,91,0.00,,,1.53,,2013-02-28 03:42:00,
2013-02-27 22:52:00,36.0,34.0,29.63,WNW,303,0.0,1.0,91,0.00,,,1.53,,2013-02-28 03:52:00,
2013-02-27 23:02:00,36.0,34.0,29.63,WNW,303,0.0,0.0,91,0.00,,,1.53,,2013-02-28 04:02:00,
2013-02-27 23:11:00,36.0,34.0,29.63,WNW,303,0.0,0.0,91,0.00,,,1.53,,2013-02-28 04:11:00,
2013-02-27 23:22:00,35.0,33.0,29.63,WNW,303,0.0,1.0,91,0.00,,,1.50,,2013-02-28 04:22:00,
2013-02-27 23:32:00,35.0,33.0,29.63,WNW,303,0.0,0.0,91,0.00,,,1.50,,2013-02-28 04:32:00,
2013-02-27 23:42:00,35.0,33.0,29.63,WNW,303,0.0,0.0,91,0.00,,,1.50,,2013-02-28 04:42:00,
2013-02-27 23:52:00,35.0,33.0,29.63,WNW,303,0.0,1.0,91,0.00,,,1.50,,2013-02-28 04:52:00,